Time;durP1;ratioP1;P1;durP2;ratioP2;P2;SDS_P1;SDS_P2;PMS_P1;PMS_P2;Temp;Humidity;BMP_temperature;BMP_pressure;BME280_temperature;BME280_humidity;BME280_pressure;Samples;Min_cycle;Max_cycle;Signal;HPM_P1;HPM_P2
2023/11/13 00:01:32;;;;;;;19.40;18.10;;;6.70;99.90;;;;;;4838005;29;20202;-78
2023/11/13 00:04:00;;;;;;;18.77;17.57;;;6.80;99.90;;;;;;4826739;29;20196;-78
2023/11/13 00:17:51;;;;;;;18.50;17.37;;;7.20;99.90;;;;;;4821633;29;20266;-77
2023/11/13 00:20:19;;;;;;;19.17;17.83;;;7.30;99.90;;;;;;4834546;29;20216;-78
2023/11/13 00:22:46;;;;;;;17.73;16.63;;;7.40;99.90;;;;;;4811893;29;20210;-78
2023/11/13 00:25:13;;;;;;;17.80;16.60;;;7.40;99.90;;;;;;4818721;29;20203;-78
2023/11/13 00:27:40;;;;;;;17.53;16.43;;;7.50;99.90;;;;;;4821619;29;20279;-78
2023/11/13 00:30:07;;;;;;;17.43;16.43;;;7.50;99.90;;;;;;4818600;29;20210;-78
2023/11/13 00:32:35;;;;;;;17.57;16.40;;;7.60;99.90;;;;;;4824582;29;20219;-77
2023/11/13 00:35:02;;;;;;;17.40;16.30;;;7.60;99.90;;;;;;4816734;29;20231;-77
2023/11/13 00:37:30;;;;;;;17.20;16.10;;;7.60;99.90;;;;;;4825147;29;20243;-78
2023/11/13 00:39:57;;;;;;;18.43;17.33;;;7.60;99.90;;;;;;4831605;29;20233;-78
2023/11/13 00:42:24;;;;;;;21.13;19.53;;;7.60;99.90;;;;;;4810579;29;20211;-77
2023/11/13 00:44:51;;;;;;;20.10;18.80;;;7.50;99.90;;;;;;4826851;29;20578;-78
2023/11/13 00:47:17;;;;;;;21.77;20.27;;;7.50;99.90;;;;;;4840417;29;20226;-78
2023/11/13 00:49:44;;;;;;;21.83;20.33;;;7.40;99.90;;;;;;4838994;29;20211;-78
2023/11/13 00:52:12;;;;;;;21.80;20.13;;;7.30;99.90;;;;;;4841668;29;20210;-77
2023/11/13 00:54:40;;;;;;;21.67;20.17;;;7.30;99.90;;;;;;4825859;29;20215;-78
2023/11/13 00:57:08;;;;;;;21.10;19.63;;;7.20;99.90;;;;;;4830205;29;20743;-78
2023/11/13 00:59:35;;;;;;;21.20;19.70;;;7.20;99.90;;;;;;4821399;29;20240;-78
2023/11/13 01:02:02;;;;;;;20.93;19.53;;;7.20;99.90;;;;;;4818028;29;20662;-78
2023/11/13 01:04:30;;;;;;;20.50;19.10;;;7.20;99.90;;;;;;4839300;29;20212;-77
2023/11/13 01:06:57;;;;;;;21.07;19.50;;;7.20;99.90;;;;;;4839199;29;20226;-78
2023/11/13 01:09:25;;;;;;;20.87;19.37;;;7.20;99.90;;;;;;4838895;29;20260;-78
2023/11/13 01:11:53;;;;;;;21.00;19.50;;;7.20;99.90;;;;;;4818545;29;20220;-78
2023/11/13 01:14:21;;;;;;;21.37;19.67;;;7.20;99.90;;;;;;4824490;29;20206;-78
2023/11/13 01:16:48;;;;;;;21.23;19.73;;;7.20;99.90;;;;;;4828454;29;20237;-78
2023/11/13 01:19:15;;;;;;;21.13;19.73;;;7.20;99.90;;;;;;4835023;29;20208;-78
2023/11/13 01:21:42;;;;;;;21.47;19.97;;;7.20;99.90;;;;;;4836322;29;20213;-77
2023/11/13 01:24:09;;;;;;;21.10;19.53;;;7.20;99.90;;;;;;4837683;29;20211;-78
2023/11/13 01:26:36;;;;;;;20.13;18.73;;;7.20;99.90;;;;;;4823960;29;20254;-78
2023/11/13 01:29:04;;;;;;;20.17;18.77;;;7.20;99.90;;;;;;4820837;29;20263;-77
2023/11/13 01:31:31;;;;;;;20.53;19.10;;;7.30;99.90;;;;;;4840939;29;20270;-77
2023/11/13 01:33:58;;;;;;;20.80;19.40;;;7.30;99.90;;;;;;4826888;29;20642;-78
2023/11/13 01:36:25;;;;;;;20.53;19.13;;;7.40;99.90;;;;;;4839675;29;20231;-78
2023/11/13 01:38:52;;;;;;;21.80;20.23;;;7.40;99.90;;;;;;4824244;29;20241;-78
2023/11/13 01:41:18;;;;;;;21.87;20.17;;;7.40;99.90;;;;;;4818269;29;20594;-78
2023/11/13 01:43:45;;;;;;;21.60;20.10;;;7.40;99.90;;;;;;4818598;29;20208;-77
2023/11/13 01:46:14;;;;;;;22.10;20.40;;;7.40;99.90;;;;;;4840575;29;20206;-78
2023/11/13 01:48:41;;;;;;;22.97;21.33;;;7.40;99.90;;;;;;4835187;29;20203;-77
2023/11/13 01:51:08;;;;;;;22.40;20.70;;;7.30;99.90;;;;;;4825420;29;20210;-78
2023/11/13 01:53:36;;;;;;;22.87;21.17;;;7.30;99.90;;;;;;4827944;29;20216;-78
2023/11/13 01:56:04;;;;;;;21.87;20.27;;;7.30;99.90;;;;;;4838254;29;20236;-77
2023/11/13 01:58:31;;;;;;;21.70;20.13;;;7.30;99.90;;;;;;4820853;29;20215;-78
2023/11/13 02:00:57;;;;;;;21.47;19.87;;;7.30;99.90;;;;;;4839606;29;20199;-78
2023/11/13 02:03:28;;;;;;;20.87;19.37;;;7.30;99.90;;;;;;4833299;29;20216;-78
2023/11/13 02:05:55;;;;;;;21.20;19.70;;;7.40;99.90;;;;;;4826992;29;20200;-77
2023/11/13 02:08:22;;;;;;;20.13;18.77;;;7.40;99.90;;;;;;4844758;29;20215;-78
2023/11/13 02:10:49;;;;;;;18.87;17.67;;;7.40;99.90;;;;;;4821001;29;20208;-78
2023/11/13 02:13:16;;;;;;;19.43;18.13;;;7.50;99.90;;;;;;4841538;29;20208;-78
2023/11/13 02:15:43;;;;;;;18.90;17.67;;;7.60;99.90;;;;;;4827247;29;20215;-78
2023/11/13 02:18:10;;;;;;;20.70;19.13;;;7.60;99.90;;;;;;4809686;29;20642;-77
2023/11/13 02:20:39;;;;;;;20.90;19.40;;;7.60;99.90;;;;;;4828865;29;20204;-78
2023/11/13 02:23:06;;;;;;;21.30;19.60;;;7.60;99.90;;;;;;4840776;29;20681;-78
2023/11/13 02:25:38;;;;;;;22.37;20.77;;;7.60;99.90;;;;;;4842293;29;20228;-78
2023/11/13 02:28:06;;;;;;;22.13;20.63;;;7.60;99.90;;;;;;4827909;29;20227;-78
2023/11/13 02:30:36;;;;;;;21.90;20.40;;;7.60;99.90;;;;;;4813515;29;20305;-77
2023/11/13 02:33:04;;;;;;;21.97;20.40;;;7.50;99.90;;;;;;4827295;29;20225;-78
2023/11/13 02:35:31;;;;;;;22.30;20.70;;;7.50;99.90;;;;;;4804719;29;20740;-77
2023/11/13 02:37:58;;;;;;;22.27;20.67;;;7.50;99.90;;;;;;4813338;29;20239;-78
2023/11/13 02:40:25;;;;;;;22.63;20.83;;;7.50;99.90;;;;;;4841578;29;20219;-78
2023/11/13 02:42:53;;;;;;;22.30;20.63;;;7.50;99.90;;;;;;4828049;29;20199;-78
2023/11/13 02:45:20;;;;;;;21.60;20.10;;;7.50;99.90;;;;;;4826473;29;20222;-77
2023/11/13 02:47:47;;;;;;;21.60;20.00;;;7.50;99.90;;;;;;4839895;29;20223;-78
2023/11/13 02:50:14;;;;;;;20.07;18.67;;;7.50;99.90;;;;;;4811278;29;20290;-78
2023/11/13 02:52:42;;;;;;;19.87;18.57;;;7.50;99.90;;;;;;4839175;29;20211;-78
2023/11/13 02:55:09;;;;;;;19.20;17.90;;;7.60;99.90;;;;;;4826136;29;20667;-78
2023/11/13 02:57:36;;;;;;;19.07;17.87;;;7.70;99.90;;;;;;4826806;29;20392;-77
2023/11/13 03:00:07;;;;;;;19.00;17.80;;;7.80;99.90;;;;;;4829229;29;20216;-78
2023/11/13 03:02:34;;;;;;;18.57;17.43;;;7.90;99.90;;;;;;4825622;29;20209;-79
2023/11/13 03:05:01;;;;;;;18.20;17.00;;;8.00;99.90;;;;;;4825212;29;20265;-77
2023/11/13 03:07:28;;;;;;;17.63;16.53;;;8.20;99.90;;;;;;4843062;29;20243;-78
2023/11/13 03:09:55;;;;;;;17.50;16.40;;;8.30;99.90;;;;;;4827451;29;20203;-78
2023/11/13 03:12:22;;;;;;;16.77;15.67;;;8.40;99.90;;;;;;4819295;29;20239;-78
2023/11/13 03:14:49;;;;;;;16.73;15.73;;;8.50;99.90;;;;;;4840596;29;20227;-78
2023/11/13 03:17:18;;;;;;;16.13;15.23;;;8.50;99.90;;;;;;4829057;29;20242;-78
2023/11/13 03:19:45;;;;;;;15.70;14.87;;;8.60;99.90;;;;;;4827327;29;20199;-78
2023/11/13 03:22:13;;;;;;;17.20;16.00;;;8.70;99.90;;;;;;4845220;29;20214;-78
2023/11/13 03:24:39;;;;;;;16.30;15.30;;;8.80;99.90;;;;;;4827349;29;20199;-78
2023/11/13 03:27:06;;;;;;;15.80;14.80;;;8.90;99.90;;;;;;4841133;29;20227;-78
2023/11/13 03:29:33;;;;;;;15.80;14.80;;;8.90;99.90;;;;;;4839202;29;20207;-78
2023/11/13 03:32:00;;;;;;;15.50;14.60;;;9.00;99.90;;;;;;4845441;29;20204;-78
2023/11/13 03:34:29;;;;;;;14.97;14.07;;;9.00;99.90;;;;;;4842399;29;20204;-78
2023/11/13 03:36:57;;;;;;;16.93;15.93;;;9.10;99.90;;;;;;4825512;29;20266;-77
2023/11/13 03:39:26;;;;;;;11.97;11.20;;;9.10;99.90;;;;;;4840797;29;20245;-79
2023/11/13 03:41:53;;;;;;;8.90;8.30;;;9.10;99.90;;;;;;4824515;29;20196;-78
2023/11/13 03:44:20;;;;;;;8.50;7.90;;;9.20;99.90;;;;;;4829824;29;20591;-78
2023/11/13 03:46:47;;;;;;;6.77;6.33;;;9.20;99.90;;;;;;4824021;29;20273;-76
2023/11/13 03:49:13;;;;;;;9.17;8.47;;;9.30;99.90;;;;;;4817849;29;20210;-80
2023/11/13 03:51:42;;;;;;;15.10;14.17;;;9.40;99.90;;;;;;4828921;29;20207;-80
2023/11/13 03:54:09;;;;;;;5.83;5.37;;;9.40;99.90;;;;;;4826838;29;20673;-81
2023/11/13 03:56:36;;;;;;;4.60;4.30;;;9.50;99.90;;;;;;4823838;29;20260;-79
2023/11/13 03:59:04;;;;;;;4.67;4.37;;;9.50;99.90;;;;;;4809958;29;20212;-81
2023/11/13 04:01:30;;;;;;;4.87;4.57;;;9.60;99.90;;;;;;4808459;29;20208;-82
2023/11/13 04:03:57;;;;;;;7.97;7.37;;;9.60;99.90;;;;;;4808989;29;20208;-81
2023/11/13 04:06:24;;;;;;;12.70;11.90;;;9.60;99.90;;;;;;4804862;29;20225;-80
2023/11/13 04:08:53;;;;;;;15.80;14.90;;;9.70;99.90;;;;;;4807962;29;20295;-81
2023/11/13 04:11:19;;;;;;;16.33;15.30;;;9.70;99.90;;;;;;4824702;29;20207;-80
2023/11/13 04:13:46;;;;;;;16.03;15.13;;;9.70;99.90;;;;;;4807741;29;20239;-82
2023/11/13 04:16:14;;;;;;;15.93;15.03;;;9.70;99.90;;;;;;4807014;29;20231;-80
2023/11/13 04:18:41;;;;;;;16.50;15.40;;;9.70;99.90;;;;;;4808786;29;20210;-80
2023/11/13 04:21:07;;;;;;;16.63;15.63;;;9.70;99.90;;;;;;4809104;29;20306;-81
2023/11/13 04:23:34;;;;;;;16.90;15.70;;;9.70;99.90;;;;;;4807302;29;20593;-79
2023/11/13 04:28:54;;;;;;;16.70;15.60;;;9.80;99.90;;;;;;4857366;29;20217;-80
2023/11/13 04:31:21;;;;;;;16.60;15.50;;;9.80;99.90;;;;;;4872838;29;20254;-80
2023/11/13 04:34:15;;;;;;;16.40;15.30;;;9.80;99.90;;;;;;4862890;29;20202;-81
2023/11/13 04:36:42;;;;;;;16.03;15.03;;;9.80;99.90;;;;;;4855927;29;20234;-80
2023/11/13 04:39:11;;;;;;;15.63;14.67;;;9.80;99.90;;;;;;4877209;29;20743;-79
2023/11/13 04:41:39;;;;;;;16.30;15.27;;;9.80;99.90;;;;;;4861035;29;20225;-79
2023/11/13 04:44:08;;;;;;;16.63;15.73;;;9.80;99.90;;;;;;4862775;29;20830;-80
2023/11/13 04:46:34;;;;;;;16.67;15.63;;;9.80;99.90;;;;;;4863439;29;20270;-81
2023/11/13 04:49:01;;;;;;;16.20;15.20;;;9.80;99.90;;;;;;4860810;29;20268;-82
2023/11/13 04:51:36;;;;;;;16.20;15.10;;;9.80;99.90;;;;;;4859829;29;20548;-82
2023/11/13 04:54:03;;;;;;;16.70;15.60;;;9.80;99.90;;;;;;4872563;29;20213;-82
2023/11/13 04:56:31;;;;;;;16.87;15.77;;;9.80;99.90;;;;;;4859269;29;20233;-82
2023/11/13 04:59:01;;;;;;;16.77;15.73;;;9.80;99.90;;;;;;4858166;29;20648;-81
2023/11/13 05:01:39;;;;;;;17.07;15.80;;;9.80;99.90;;;;;;4856694;29;20210;-80
2023/11/13 05:04:07;;;;;;;17.13;16.03;;;9.80;99.90;;;;;;4862387;29;20202;-78
2023/11/13 05:06:35;;;;;;;17.50;16.50;;;9.80;99.90;;;;;;4862840;29;20214;-78
2023/11/13 05:09:03;;;;;;;17.40;16.30;;;9.80;99.90;;;;;;4862894;29;20202;-78
2023/11/13 05:11:30;;;;;;;18.80;17.30;;;9.90;99.90;;;;;;4862661;29;20194;-79
2023/11/13 05:13:58;;;;;;;19.53;17.83;;;9.90;99.90;;;;;;4863124;29;20583;-78
2023/11/13 05:16:27;;;;;;;17.83;16.77;;;9.90;99.90;;;;;;4863865;29;20253;-78
2023/11/13 05:18:55;;;;;;;15.03;13.87;;;9.90;99.90;;;;;;4865192;29;20209;-77
2023/11/13 05:21:23;;;;;;;11.70;10.90;;;9.90;99.90;;;;;;4864292;29;20205;-79
2023/11/13 05:23:50;;;;;;;10.63;9.93;;;9.90;99.90;;;;;;4865594;29;20604;-77
2023/11/13 05:26:17;;;;;;;10.97;10.07;;;9.90;99.90;;;;;;4868381;29;20233;-77
2023/11/13 05:28:44;;;;;;;12.60;11.70;;;9.90;99.90;;;;;;4867636;29;20242;-77
2023/11/13 05:31:11;;;;;;;12.67;11.77;;;9.90;99.90;;;;;;4866332;29;20210;-78
2023/11/13 05:33:38;;;;;;;6.03;5.50;;;9.90;99.90;;;;;;4866995;29;20202;-77
2023/11/13 05:36:07;;;;;;;14.37;13.23;;;9.90;99.90;;;;;;4866294;29;20245;-78
2023/11/13 05:38:33;;;;;;;6.03;5.53;;;9.90;99.90;;;;;;4867106;29;20671;-77
2023/11/13 05:41:00;;;;;;;5.90;5.33;;;9.90;99.90;;;;;;4868680;29;20206;-78
2023/11/13 05:43:27;;;;;;;12.17;11.33;;;9.80;99.90;;;;;;4865601;29;20573;-78
2023/11/13 05:45:54;;;;;;;6.60;6.10;;;9.90;99.90;;;;;;4868262;29;20257;-78
2023/11/13 05:48:21;;;;;;;6.77;6.00;;;9.80;99.90;;;;;;4866384;29;20233;-77
2023/11/13 05:50:48;;;;;;;7.40;5.60;;;9.80;99.90;;;;;;4867769;29;20263;-78
2023/11/13 05:53:16;;;;;;;14.67;13.47;;;9.80;99.90;;;;;;4866684;29;20223;-78
2023/11/13 05:55:43;;;;;;;17.90;16.60;;;9.90;99.90;;;;;;4865520;29;20205;-77
2023/11/13 05:58:10;;;;;;;8.67;6.10;;;9.90;99.90;;;;;;4865917;29;20799;-78
2023/11/13 06:00:37;;;;;;;12.03;11.13;;;9.90;99.90;;;;;;4866125;29;20221;-78
2023/11/13 06:03:03;;;;;;;8.87;8.10;;;9.90;99.90;;;;;;4864608;29;20236;-77
2023/11/13 06:05:31;;;;;;;9.63;6.97;;;9.90;99.90;;;;;;4864966;29;20201;-77
2023/11/13 06:07:58;;;;;;;6.80;5.40;;;9.90;99.90;;;;;;4865997;29;20217;-77
2023/11/13 06:10:27;;;;;;;7.77;5.30;;;9.90;99.90;;;;;;4863538;29;21607;-78
2023/11/13 06:12:54;;;;;;;6.17;5.00;;;9.90;99.90;;;;;;4864667;29;20649;-78
2023/11/13 06:15:21;;;;;;;10.93;10.13;;;9.90;99.90;;;;;;4864457;29;20263;-77
2023/11/13 06:17:48;;;;;;;9.63;8.90;;;9.90;99.90;;;;;;4866319;29;20247;-77
2023/11/13 06:20:15;;;;;;;6.30;5.10;;;9.90;99.90;;;;;;4864485;29;20214;-78
2023/11/13 06:22:42;;;;;;;5.80;5.20;;;9.90;99.90;;;;;;4866238;29;20201;-77
2023/11/13 06:25:10;;;;;;;8.77;8.07;;;9.90;99.90;;;;;;4866824;29;20482;-78
2023/11/13 06:27:39;;;;;;;17.70;16.37;;;9.90;99.90;;;;;;4865249;29;20282;-78
2023/11/13 06:30:09;;;;;;;7.90;7.13;;;9.80;99.90;;;;;;4865694;29;20205;-77
2023/11/13 06:32:36;;;;;;;18.33;16.03;;;9.90;99.90;;;;;;4864378;29;20203;-77
2023/11/13 06:35:03;;;;;;;16.67;12.60;;;9.90;99.90;;;;;;4863372;29;20209;-78
2023/11/13 06:37:30;;;;;;;13.53;10.80;;;9.90;99.90;;;;;;4866927;29;20233;-77
2023/11/13 06:39:58;;;;;;;8.93;6.87;;;9.90;99.90;;;;;;4862181;29;20691;-77
2023/11/13 06:42:25;;;;;;;11.50;10.40;;;9.90;99.90;;;;;;4861553;29;20208;-78
2023/11/13 06:44:53;;;;;;;9.53;8.60;;;9.90;99.90;;;;;;4865040;29;20198;-78
2023/11/13 06:47:20;;;;;;;11.40;10.40;;;9.90;99.90;;;;;;4865118;29;20222;-78
2023/11/13 06:49:50;;;;;;;9.80;8.20;;;9.90;99.90;;;;;;4863628;29;20203;-83
2023/11/13 06:52:24;;;;;;;7.80;4.90;;;9.90;99.90;;;;;;4864781;29;20578;-83
2023/11/13 06:54:52;;;;;;;5.07;4.67;;;9.90;99.90;;;;;;4865145;29;20206;-81
2023/11/13 06:58:22;;;;;;;6.90;4.60;;;9.90;99.90;;;;;;4864607;29;20226;-82
2023/11/13 07:01:15;;;;;;;7.63;5.57;;;9.90;99.90;;;;;;4865470;29;20332;-78
2023/11/13 07:03:43;;;;;;;7.33;6.57;;;9.90;99.90;;;;;;4864125;29;20201;-77
2023/11/13 07:06:10;;;;;;;9.57;8.77;;;9.80;99.90;;;;;;4865635;29;20230;-77
2023/11/13 07:08:37;;;;;;;7.13;6.40;;;9.80;99.90;;;;;;4861117;29;20698;-78
2023/11/13 07:11:05;;;;;;;10.67;9.17;;;9.80;99.90;;;;;;4863760;29;20711;-78
2023/11/13 07:13:32;;;;;;;9.80;9.00;;;9.80;99.90;;;;;;4864291;29;20330;-78
2023/11/13 07:16:03;;;;;;;15.00;13.90;;;9.90;99.90;;;;;;4866273;29;20635;-79
2023/11/13 07:18:46;;;;;;;9.73;8.90;;;9.80;99.90;;;;;;4862138;29;20228;-86
2023/11/13 07:21:15;;;;;;;14.10;13.00;;;9.80;99.90;;;;;;4874867;29;20711;-81
2023/11/13 07:23:41;;;;;;;9.37;8.67;;;9.80;99.90;;;;;;4866293;29;20210;-82
2023/11/13 07:26:09;;;;;;;15.30;14.10;;;9.80;99.90;;;;;;4864186;29;20209;-81
2023/11/13 07:28:36;;;;;;;14.77;13.67;;;9.90;99.90;;;;;;4861631;29;20210;-82
2023/11/13 07:31:04;;;;;;;15.40;14.30;;;9.80;99.90;;;;;;4863980;29;20206;-80
2023/11/13 07:33:45;;;;;;;4.60;4.20;;;9.80;99.90;;;;;;4863031;29;20206;-79
2023/11/13 07:36:13;;;;;;;7.93;7.27;;;9.80;99.90;;;;;;4857709;29;20214;-78
2023/11/13 07:38:42;;;;;;;8.07;7.43;;;9.80;99.90;;;;;;4861250;29;20286;-78
2023/11/13 07:41:11;;;;;;;13.97;13.00;;;9.90;99.90;;;;;;4864273;29;20202;-78
2023/11/13 07:43:39;;;;;;;15.83;14.83;;;9.90;99.90;;;;;;4861769;29;20401;-76
2023/11/13 07:46:07;;;;;;;15.03;14.13;;;9.80;99.90;;;;;;4860404;29;20614;-78
2023/11/13 07:48:35;;;;;;;7.83;6.87;;;9.90;99.90;;;;;;4862165;29;20297;-78
2023/11/13 07:51:02;;;;;;;12.23;11.43;;;9.90;99.90;;;;;;4863769;29;20198;-78
2023/11/13 07:53:30;;;;;;;11.73;11.03;;;9.90;99.90;;;;;;4863464;29;20205;-78
2023/11/13 07:55:57;;;;;;;11.23;10.43;;;9.80;99.90;;;;;;4863692;29;20267;-77
2023/11/13 07:58:25;;;;;;;5.20;4.70;;;9.90;99.90;;;;;;4863603;29;20214;-77
2023/11/13 08:00:53;;;;;;;5.60;5.20;;;9.90;99.90;;;;;;4862568;29;20202;-78
2023/11/13 08:03:20;;;;;;;4.73;3.90;;;9.90;99.90;;;;;;4862490;29;20205;-77
2023/11/13 08:05:47;;;;;;;5.80;5.40;;;9.90;99.90;;;;;;4862187;29;20208;-78
2023/11/13 08:08:15;;;;;;;4.57;4.13;;;9.90;99.90;;;;;;4861943;29;20221;-81
2023/11/13 08:10:43;;;;;;;5.20;4.70;;;9.90;99.90;;;;;;4860350;29;20687;-78
2023/11/13 08:13:11;;;;;;;9.30;8.53;;;9.90;99.90;;;;;;4860461;29;20208;-77
2023/11/13 08:15:38;;;;;;;14.40;13.30;;;9.80;99.90;;;;;;4864112;29;20206;-78
2023/11/13 08:18:05;;;;;;;5.87;3.80;;;9.80;99.90;;;;;;4863311;29;20234;-77
2023/11/13 08:20:32;;;;;;;4.97;4.57;;;9.80;99.90;;;;;;4863702;29;20202;-78
2023/11/13 08:22:59;;;;;;;8.97;8.23;;;9.80;99.90;;;;;;4862689;29;20262;-77
2023/11/13 08:25:27;;;;;;;7.73;7.07;;;9.80;99.90;;;;;;4865906;29;20734;-77
2023/11/13 08:27:57;;;;;;;10.40;9.70;;;9.80;99.90;;;;;;4862213;29;20294;-77
2023/11/13 08:30:25;;;;;;;6.63;6.03;;;9.80;99.90;;;;;;4863103;29;20644;-78
2023/11/13 08:32:52;;;;;;;11.10;10.20;;;9.80;99.90;;;;;;4863622;29;20667;-77
2023/11/13 08:35:19;;;;;;;9.70;8.90;;;9.80;99.90;;;;;;4861850;29;20278;-77
2023/11/13 08:37:47;;;;;;;5.43;4.40;;;9.80;99.90;;;;;;4863437;29;20227;-78
2023/11/13 08:40:17;;;;;;;6.57;4.63;;;9.90;99.90;;;;;;4863563;29;20679;-78
2023/11/13 08:42:44;;;;;;;5.10;4.60;;;9.90;99.90;;;;;;4861179;29;20313;-77
2023/11/13 08:45:15;;;;;;;4.93;4.50;;;9.90;99.90;;;;;;4861920;29;20214;-78
2023/11/13 08:47:42;;;;;;;6.57;6.07;;;9.90;99.90;;;;;;4863212;29;20218;-77
2023/11/13 08:50:11;;;;;;;8.97;8.17;;;9.90;99.90;;;;;;4863394;29;20202;-77
2023/11/13 08:52:40;;;;;;;14.60;13.40;;;10.00;99.90;;;;;;4861801;29;20206;-78
2023/11/13 08:55:10;;;;;;;14.30;13.30;;;10.00;99.90;;;;;;4863935;29;20235;-77
2023/11/13 08:57:38;;;;;;;14.33;13.43;;;10.10;99.90;;;;;;4865286;29;20229;-77
2023/11/13 09:00:06;;;;;;;14.30;13.30;;;10.20;99.90;;;;;;4859390;29;20207;-77
2023/11/13 09:02:35;;;;;;;15.20;14.30;;;10.20;99.90;;;;;;4867103;29;20205;-81
2023/11/13 09:05:04;;;;;;;14.40;13.40;;;10.30;99.90;;;;;;4859977;29;20201;-77
2023/11/13 09:07:31;;;;;;;14.40;13.50;;;10.40;99.90;;;;;;4861841;29;20210;-77
2023/11/13 09:10:08;;;;;;;11.27;10.37;;;10.50;99.90;;;;;;4862772;29;20226;-78
2023/11/13 09:12:36;;;;;;;15.23;14.13;;;10.60;99.90;;;;;;4864671;29;20214;-78
2023/11/13 09:15:04;;;;;;;15.13;14.03;;;10.60;99.90;;;;;;4863496;29;20255;-78
2023/11/13 09:18:09;;;;;;;10.70;10.00;;;10.70;99.90;;;;;;4860691;29;20258;-82
2023/11/13 09:24:47;;;;;;;14.60;13.70;;;10.80;99.90;;;;;;4780217;29;20222;-77
2023/11/13 09:27:14;;;;;;;15.10;14.00;;;10.90;99.90;;;;;;4861922;29;20322;-77
2023/11/13 09:29:44;;;;;;;15.30;14.20;;;11.00;99.90;;;;;;4862919;29;20267;-78
2023/11/13 09:32:11;;;;;;;16.17;15.07;;;11.10;99.90;;;;;;4864723;29;20291;-77
2023/11/13 09:34:41;;;;;;;15.13;14.13;;;11.20;99.90;;;;;;4863774;29;20639;-77
2023/11/13 09:37:08;;;;;;;14.83;14.00;;;11.30;99.90;;;;;;4863763;29;20288;-77
2023/11/13 09:39:39;;;;;;;12.93;12.13;;;11.40;99.90;;;;;;4863023;29;20389;-77
2023/11/13 09:42:14;;;;;;;13.37;12.50;;;11.40;99.90;;;;;;4865558;29;20631;-77
2023/11/13 09:44:42;;;;;;;9.17;8.47;;;11.50;99.90;;;;;;4860651;29;20264;-77
2023/11/13 09:47:10;;;;;;;8.70;8.00;;;11.60;99.90;;;;;;4864853;29;20308;-77
2023/11/13 09:49:44;;;;;;;8.23;7.63;;;11.60;99.90;;;;;;4864169;29;20208;-77
2023/11/13 09:52:12;;;;;;;8.30;7.70;;;11.70;99.90;;;;;;4865752;29;20208;-77
2023/11/13 09:54:40;;;;;;;7.63;7.13;;;11.80;99.90;;;;;;4862811;29;20209;-77
2023/11/13 09:57:13;;;;;;;7.37;6.87;;;11.90;99.90;;;;;;4863062;29;20257;-77
2023/11/13 09:59:41;;;;;;;8.77;8.20;;;12.00;99.90;;;;;;4864346;29;20222;-77
2023/11/13 10:02:10;;;;;;;8.40;7.70;;;12.10;99.90;;;;;;4862935;29;20272;-78
2023/11/13 10:04:37;;;;;;;6.83;6.33;;;12.10;99.90;;;;;;4863469;29;20616;-77
2023/11/13 10:07:06;;;;;;;10.17;9.47;;;12.00;99.90;;;;;;4864731;29;20224;-79
2023/11/13 10:09:35;;;;;;;12.23;11.53;;;12.10;99.90;;;;;;4861837;29;20307;-77
2023/11/13 10:12:02;;;;;;;11.80;11.10;;;12.10;99.90;;;;;;4864101;29;20197;-77
2023/11/13 10:14:30;;;;;;;11.03;10.33;;;12.10;99.90;;;;;;4864440;29;20265;-77
2023/11/13 10:17:00;;;;;;;12.50;11.70;;;12.10;99.90;;;;;;4866696;29;20670;-77
2023/11/13 10:19:28;;;;;;;12.63;11.73;;;12.10;99.90;;;;;;4866337;29;20229;-78
2023/11/13 10:21:56;;;;;;;14.07;13.17;;;12.20;99.90;;;;;;4866596;29;20264;-77
2023/11/13 10:24:25;;;;;;;13.10;12.10;;;12.20;99.90;;;;;;4866668;29;20206;-77
2023/11/13 10:26:52;;;;;;;12.80;12.00;;;12.30;99.90;;;;;;4866477;29;20321;-77
2023/11/13 10:29:26;;;;;;;9.87;9.17;;;12.30;99.90;;;;;;4865393;29;20706;-77
2023/11/13 10:31:54;;;;;;;12.50;11.60;;;12.40;99.90;;;;;;4869589;29;20308;-78
2023/11/13 10:34:21;;;;;;;11.97;11.07;;;12.50;99.90;;;;;;4864774;29;20210;-77
2023/11/13 10:37:08;;;;;;;12.17;11.10;;;12.60;99.90;;;;;;4865666;29;20281;-77
2023/11/13 10:39:36;;;;;;;12.00;11.20;;;12.70;99.90;;;;;;4864784;29;20287;-77
2023/11/13 10:42:05;;;;;;;11.67;10.93;;;12.70;99.90;;;;;;4865236;29;20243;-77
2023/11/13 10:44:37;;;;;;;10.47;9.50;;;12.70;99.90;;;;;;4864518;29;20273;-78
2023/11/13 10:47:20;;;;;;;4.67;4.27;;;12.80;99.90;;;;;;4863090;29;20230;-78
2023/11/13 10:49:49;;;;;;;6.57;4.70;;;12.80;99.90;;;;;;4865369;29;20198;-77
2023/11/13 10:52:17;;;;;;;7.03;4.50;;;12.80;99.90;;;;;;4866098;29;20210;-77
2023/11/13 10:54:48;;;;;;;8.67;8.00;;;12.80;99.90;;;;;;4865377;29;20210;-77
2023/11/13 10:57:16;;;;;;;8.90;8.30;;;12.90;99.90;;;;;;4862566;29;20254;-78
2023/11/13 10:59:46;;;;;;;5.83;5.23;;;13.00;99.90;;;;;;4864477;29;20238;-78
2023/11/13 11:02:24;;;;;;;8.00;7.37;;;13.00;99.90;;;;;;4866547;29;20206;-77
2023/11/13 11:04:54;;;;;;;8.27;7.57;;;13.10;99.90;;;;;;4863549;29;20209;-78
2023/11/13 11:07:24;;;;;;;11.30;7.83;;;13.10;99.90;;;;;;4866273;29;20226;-77
2023/11/13 11:09:53;;;;;;;9.67;8.97;;;13.10;99.90;;;;;;4864904;29;20202;-77
2023/11/13 11:12:31;;;;;;;;;;;;;;;;;;;;;
2023/11/13 11:15:17;;;;;;;15.30;14.23;;;13.00;99.90;;;;;;4862329;29;20227;-82
2023/11/13 11:17:54;;;;;;;15.33;14.43;;;13.00;99.90;;;;;;4858679;29;20281;-82
2023/11/13 11:20:31;;;;;;;14.93;14.13;;;12.90;99.90;;;;;;4861636;29;20202;-82
2023/11/13 11:23:00;;;;;;;15.93;14.80;;;12.90;99.90;;;;;;4861180;29;20354;-82
2023/11/13 11:25:46;;;;;;;15.20;14.20;;;12.90;99.90;;;;;;4863365;29;20242;-82
2023/11/13 11:28:43;;;;;;;15.37;14.37;;;12.90;99.90;;;;;;4861229;29;20238;-82
2023/11/13 11:31:50;;;;;;;15.20;14.30;;;12.90;99.90;;;;;;4861436;29;20237;-82
2023/11/13 11:34:20;;;;;;;15.27;14.17;;;12.90;99.90;;;;;;4860738;29;20759;-82
2023/11/13 11:36:53;;;;;;;15.03;14.03;;;13.00;99.90;;;;;;4860486;29;20311;-82
2023/11/13 11:39:22;;;;;;;15.93;14.73;;;13.00;99.90;;;;;;4855225;29;20218;-82
2023/11/13 11:41:51;;;;;;;14.97;14.00;;;13.00;99.90;;;;;;4862272;29;20210;-82
2023/11/13 11:44:21;;;;;;;15.63;14.63;;;13.10;99.90;;;;;;4860669;29;20213;-82
2023/11/13 11:46:48;;;;;;;15.70;14.70;;;13.10;99.90;;;;;;4861338;29;20354;-83
2023/11/13 11:49:24;;;;;;;15.50;14.40;;;13.10;99.90;;;;;;4860017;29;20254;-82
2023/11/13 11:51:53;;;;;;;14.97;13.90;;;13.20;99.90;;;;;;4859679;29;20197;-82
2023/11/13 11:54:22;;;;;;;14.07;13.13;;;13.30;99.90;;;;;;4861724;29;20312;-83
2023/11/13 11:57:01;;;;;;;14.33;13.27;;;13.30;99.90;;;;;;4864369;29;20307;-82
2023/11/13 11:59:29;;;;;;;15.27;14.07;;;13.40;99.90;;;;;;4859967;29;20277;-81
2023/11/13 12:02:00;;;;;;;14.00;13.13;;;13.40;99.90;;;;;;4863560;29;20194;-84
2023/11/13 12:04:30;;;;;;;14.23;13.17;;;13.40;99.90;;;;;;4863804;29;20214;-77
2023/11/13 12:06:59;;;;;;;14.27;13.27;;;13.40;99.90;;;;;;4866555;29;20257;-78
2023/11/13 12:09:26;;;;;;;13.93;13.13;;;13.40;99.90;;;;;;4865836;29;20194;-77
2023/11/13 12:11:53;;;;;;;13.70;12.90;;;13.40;99.90;;;;;;4864755;29;20204;-78
2023/11/13 12:14:20;;;;;;;14.27;13.33;;;13.50;99.90;;;;;;4864534;29;20194;-77
2023/11/13 12:16:48;;;;;;;14.53;13.73;;;13.50;99.90;;;;;;4865565;29;20732;-77
2023/11/13 12:19:16;;;;;;;14.13;13.20;;;13.50;99.90;;;;;;4866150;29;20246;-78
2023/11/13 12:21:45;;;;;;;14.47;13.47;;;13.60;99.90;;;;;;4864328;29;20209;-78
2023/11/13 12:24:15;;;;;;;13.33;12.43;;;13.60;99.90;;;;;;4862668;29;20724;-83
2023/11/13 12:26:44;;;;;;;14.10;13.00;;;13.60;99.90;;;;;;4860036;29;20725;-81
2023/11/13 12:29:15;;;;;;;13.67;12.87;;;13.60;99.90;;;;;;4857857;29;20200;-81
2023/11/13 12:31:43;;;;;;;14.50;13.50;;;13.60;99.90;;;;;;4855963;29;20229;-82
2023/11/13 12:34:10;;;;;;;14.17;13.27;;;13.60;99.90;;;;;;4860627;29;20683;-81
2023/11/13 12:36:38;;;;;;;13.90;13.10;;;13.60;99.90;;;;;;4859002;29;20286;-82
2023/11/13 12:39:07;;;;;;;14.17;13.27;;;13.60;99.90;;;;;;4859080;29;20229;-82
2023/11/13 12:41:35;;;;;;;14.17;13.20;;;13.60;99.90;;;;;;4859507;29;20318;-83
2023/11/13 12:44:05;;;;;;;14.40;13.50;;;13.60;99.90;;;;;;4861061;29;20577;-79
2023/11/13 12:46:32;;;;;;;14.57;13.67;;;13.60;99.90;;;;;;4863310;29;20232;-78
2023/11/13 12:48:59;;;;;;;14.87;13.87;;;13.60;99.90;;;;;;4858983;29;20232;-78
2023/11/13 12:51:29;;;;;;;15.50;14.50;;;13.50;99.90;;;;;;4865276;29;20224;-77
2023/11/13 12:53:59;;;;;;;16.00;14.80;;;13.50;99.90;;;;;;4860508;29;20217;-78
2023/11/13 12:56:29;;;;;;;14.80;13.90;;;13.50;99.90;;;;;;4865518;29;20225;-78
2023/11/13 12:58:55;;;;;;;15.43;14.43;;;13.50;99.90;;;;;;4864685;29;20253;-78
2023/11/13 13:01:22;;;;;;;15.10;14.10;;;13.50;99.90;;;;;;4864955;29;20203;-78
2023/11/13 13:03:50;;;;;;;14.73;13.83;;;13.50;99.90;;;;;;4865558;29;20199;-78
2023/11/13 13:06:17;;;;;;;14.80;13.90;;;13.60;99.90;;;;;;4858577;29;20207;-78
2023/11/13 13:08:51;;;;;;;15.00;14.03;;;13.60;99.90;;;;;;4865041;29;20200;-78